createdAt,value
2023-02-15T00:01:50.981Z,100.00
2023-02-15T00:04:20.274Z,100.00
2023-02-15T00:06:46.855Z,100.00
2023-02-15T00:09:13.467Z,100.00
2023-02-15T00:11:40.657Z,100.00
2023-02-15T00:14:11.229Z,100.00
2023-02-15T00:16:38.823Z,100.00
2023-02-15T00:19:06.166Z,100.00
2023-02-15T00:21:34.201Z,100.00
2023-02-15T00:24:02.265Z,100.00
2023-02-15T00:26:29.100Z,100.00
2023-02-15T00:28:56.826Z,100.00
2023-02-15T00:31:23.493Z,100.00
2023-02-15T00:33:49.970Z,100.00
2023-02-15T00:36:16.549Z,100.00
2023-02-15T00:38:42.976Z,100.00
2023-02-15T00:41:10.309Z,100.00
2023-02-15T00:43:37.661Z,100.00
2023-02-15T00:46:06.149Z,100.00
2023-02-15T00:48:32.714Z,100.00
2023-02-15T00:51:00.683Z,100.00
2023-02-15T00:53:28.165Z,100.00
2023-02-15T00:55:54.760Z,100.00
2023-02-15T00:58:21.740Z,100.00
2023-02-15T01:00:49.131Z,100.00
2023-02-15T01:03:17.098Z,100.00
2023-02-15T01:05:43.758Z,100.00
2023-02-15T01:08:10.644Z,100.00
2023-02-15T01:10:37.322Z,100.00
2023-02-15T01:13:04.192Z,100.00
2023-02-15T01:15:30.746Z,100.00
2023-02-15T01:17:57.374Z,100.00
2023-02-15T01:20:27.115Z,100.00
2023-02-15T01:22:54.296Z,100.00
2023-02-15T01:25:22.264Z,100.00
2023-02-15T01:27:49.304Z,100.00
2023-02-15T01:30:16.587Z,100.00
2023-02-15T01:32:43.652Z,100.00
2023-02-15T01:35:10.655Z,100.00
2023-02-15T01:37:37.579Z,100.00
2023-02-15T01:40:06.614Z,100.00
2023-02-15T01:42:33.112Z,100.00
2023-02-15T01:45:02.059Z,100.00
2023-02-15T01:47:44.877Z,100.00
2023-02-15T01:50:15.129Z,100.00
2023-02-15T01:53:04.929Z,100.00
2023-02-15T01:55:40.794Z,100.00
2023-02-15T01:58:07.654Z,100.00
2023-02-15T02:00:36.210Z,100.00
2023-02-15T02:03:04.557Z,100.00
2023-02-15T02:05:31.976Z,100.00
2023-02-15T02:08:01.273Z,100.00
2023-02-15T02:10:28.324Z,100.00
2023-02-15T02:13:01.968Z,100.00
2023-02-15T02:15:40.233Z,100.00
2023-02-15T02:18:28.149Z,100.00
2023-02-15T02:21:31.325Z,100.00
2023-02-15T02:24:25.654Z,100.00
2023-02-15T02:27:04.256Z,100.00
2023-02-15T02:30:20.037Z,100.00
2023-02-15T02:35:39.482Z,100.00
2023-02-15T02:38:26.560Z,100.00
2023-02-15T02:41:09.364Z,100.00
2023-02-15T02:44:05.405Z,100.00
2023-02-15T02:46:44.591Z,100.00
2023-02-15T02:49:11.008Z,100.00
2023-02-15T02:51:37.434Z,100.00
2023-02-15T02:54:07.493Z,100.00
2023-02-15T02:56:40.396Z,100.00
2023-02-15T02:59:16.560Z,100.00
2023-02-15T03:01:52.974Z,100.00
2023-02-15T03:04:24.989Z,100.00
2023-02-15T03:06:55.998Z,100.00
2023-02-15T03:09:25.697Z,100.00
2023-02-15T03:11:52.486Z,100.00
2023-02-15T03:14:20.487Z,100.00
2023-02-15T03:16:49.644Z,100.00
2023-02-15T03:19:25.277Z,100.00
2023-02-15T03:22:04.556Z,100.00
2023-02-15T03:24:44.177Z,100.00
2023-02-15T03:27:22.134Z,100.00
2023-02-15T03:29:54.487Z,100.00
2023-02-15T03:32:21.732Z,100.00
2023-02-15T03:34:48.425Z,100.00
2023-02-15T03:37:25.220Z,100.00
2023-02-15T03:40:26.142Z,100.00
2023-02-15T03:43:01.878Z,100.00
2023-02-15T03:45:32.417Z,100.00
2023-02-15T03:48:02.429Z,100.00
2023-02-15T03:50:50.537Z,100.00
2023-02-15T03:53:22.083Z,100.00
2023-02-15T03:55:55.365Z,100.00
2023-02-15T03:58:40.349Z,100.00
2023-02-15T04:01:38.378Z,100.00
2023-02-15T04:04:17.460Z,100.00
2023-02-15T04:06:43.903Z,100.00
2023-02-15T04:09:28.610Z,100.00
2023-02-15T04:11:55.110Z,100.00
2023-02-15T04:14:40.012Z,100.00
2023-02-15T04:17:08.033Z,100.00
2023-02-15T04:19:53.119Z,100.00
2023-02-15T04:22:38.223Z,100.00
2023-02-15T04:25:13.980Z,100.00
2023-02-15T04:27:45.708Z,100.00
2023-02-15T04:30:14.280Z,100.00
2023-02-15T04:32:40.894Z,100.00
2023-02-15T04:35:08.369Z,100.00
2023-02-15T04:37:34.822Z,100.00
2023-02-15T04:40:01.373Z,100.00
2023-02-15T04:42:28.357Z,100.00
2023-02-15T04:44:55.450Z,100.00
2023-02-15T04:47:21.983Z,100.00
2023-02-15T04:49:48.496Z,100.00
2023-02-15T04:52:15.069Z,100.00
2023-02-15T04:54:41.612Z,100.00
2023-02-15T04:57:08.267Z,100.00
2023-02-15T04:59:34.699Z,100.00
2023-02-15T05:02:01.138Z,100.00
2023-02-15T05:04:27.794Z,100.00
2023-02-15T05:06:54.503Z,100.00
2023-02-15T05:09:20.966Z,100.00
2023-02-15T05:11:47.584Z,100.00
2023-02-15T05:14:14.081Z,100.00
2023-02-15T05:16:40.597Z,100.00
2023-02-15T05:19:07.170Z,100.00
2023-02-15T05:21:34.232Z,100.00
2023-02-15T05:24:00.716Z,100.00
2023-02-15T05:26:46.200Z,100.00
2023-02-15T05:29:12.675Z,100.00
2023-02-15T05:31:39.458Z,100.00
2023-02-15T05:34:06.126Z,100.00
2023-02-15T05:36:32.583Z,100.00
2023-02-15T05:38:58.997Z,100.00
2023-02-15T05:41:26.579Z,100.00
2023-02-15T05:43:55.700Z,100.00
2023-02-15T05:46:22.179Z,100.00
2023-02-15T05:48:48.651Z,100.00
2023-02-15T05:51:16.804Z,100.00
2023-02-15T05:53:43.359Z,100.00
2023-02-15T05:56:13.159Z,100.00
2023-02-15T05:58:41.461Z,100.00
2023-02-15T06:01:13.100Z,100.00
2023-02-15T06:03:39.800Z,100.00
2023-02-15T06:06:07.375Z,100.00
2023-02-15T06:08:35.724Z,100.00
2023-02-15T06:11:02.697Z,100.00
2023-02-15T06:13:29.818Z,100.00
2023-02-15T06:15:56.514Z,100.00
2023-02-15T06:18:23.124Z,100.00
2023-02-15T06:20:49.984Z,100.00
2023-02-15T06:23:17.054Z,100.00
2023-02-15T06:25:43.647Z,100.00
2023-02-15T06:28:10.067Z,100.00
2023-02-15T06:30:36.502Z,100.00
2023-02-15T06:33:03.018Z,100.00
2023-02-15T06:35:29.558Z,100.00
2023-02-15T06:37:56.054Z,100.00
2023-02-15T06:40:22.597Z,100.00
2023-02-15T06:42:49.639Z,100.00
2023-02-15T06:45:16.181Z,100.00
2023-02-15T06:47:42.645Z,100.00
2023-02-15T06:50:10.173Z,100.00
2023-02-15T06:52:36.741Z,100.00
2023-02-15T06:55:03.660Z,100.00
2023-02-15T06:57:30.135Z,100.00
2023-02-15T06:59:56.520Z,100.00
2023-02-15T07:02:22.927Z,100.00
2023-02-15T07:04:49.425Z,100.00
2023-02-15T07:07:16.280Z,100.00
2023-02-15T07:09:42.721Z,100.00
2023-02-15T07:12:29.330Z,100.00
2023-02-15T07:14:55.824Z,100.00
2023-02-15T07:17:37.470Z,100.00
2023-02-15T07:20:09.656Z,100.00
2023-02-15T07:22:37.296Z,100.00
2023-02-15T07:25:05.026Z,100.00
2023-02-15T07:27:32.296Z,100.00
2023-02-15T07:29:59.245Z,100.00
2023-02-15T07:32:31.488Z,100.00
2023-02-15T07:34:59.148Z,100.00
2023-02-15T07:37:26.015Z,100.00
2023-02-15T07:39:52.460Z,100.00
2023-02-15T07:42:20.738Z,100.00
2023-02-15T07:44:47.222Z,100.00
2023-02-15T07:47:13.613Z,100.00
2023-02-15T07:49:39.996Z,100.00
2023-02-15T07:52:06.585Z,100.00
2023-02-15T07:54:33.091Z,100.00
2023-02-15T07:57:01.058Z,100.00
2023-02-15T07:59:28.272Z,100.00
2023-02-15T08:01:57.193Z,100.00
2023-02-15T08:04:24.431Z,100.00
2023-02-15T08:06:54.088Z,100.00
2023-02-15T08:09:20.878Z,100.00
2023-02-15T08:11:48.149Z,100.00
2023-02-15T08:14:17.552Z,100.00
2023-02-15T08:16:46.778Z,100.00
2023-02-15T08:19:24.823Z,100.00
2023-02-15T08:21:59.563Z,100.00
2023-02-15T08:24:29.312Z,100.00
2023-02-15T08:26:56.670Z,100.00
2023-02-15T08:29:28.739Z,100.00
2023-02-15T08:32:03.883Z,100.00
2023-02-15T08:34:40.388Z,100.00
2023-02-15T08:37:07.254Z,100.00
2023-02-15T08:39:33.875Z,100.00
2023-02-15T08:42:00.355Z,100.00
2023-02-15T08:44:26.938Z,100.00
2023-02-15T08:46:53.410Z,100.00
2023-02-15T08:49:21.924Z,100.00
2023-02-15T08:51:49.589Z,100.00
2023-02-15T08:54:18.706Z,100.00
2023-02-15T08:56:45.882Z,100.00
2023-02-15T08:59:18.207Z,100.00
2023-02-15T09:01:45.573Z,100.00
2023-02-15T09:04:13.968Z,100.00
2023-02-15T09:06:42.154Z,100.00
2023-02-15T09:09:09.082Z,100.00
2023-02-15T09:11:38.463Z,100.00
2023-02-15T09:14:09.176Z,100.00
2023-02-15T09:16:38.307Z,100.00
2023-02-15T09:19:06.160Z,100.00
2023-02-15T09:21:34.172Z,100.00
2023-02-15T09:24:03.525Z,100.00
2023-02-15T09:26:31.846Z,100.00
2023-02-15T09:29:01.811Z,100.00
2023-02-15T09:31:30.701Z,100.00
2023-02-15T09:33:59.027Z,100.00
2023-02-15T09:36:31.996Z,100.00
2023-02-15T09:39:04.646Z,100.00
2023-02-15T09:41:49.915Z,100.00
2023-02-15T09:44:34.454Z,100.00
2023-02-15T09:47:00.794Z,100.00
2023-02-15T09:49:50.682Z,100.00
2023-02-15T09:52:42.426Z,100.00
2023-02-15T09:55:22.997Z,100.00
2023-02-15T09:58:15.355Z,100.00
2023-02-15T10:01:14.259Z,100.00
2023-02-15T10:03:54.638Z,100.00
2023-02-15T10:06:42.918Z,100.00
2023-02-15T10:09:24.787Z,100.00
2023-02-15T10:12:01.011Z,100.00
2023-02-15T10:15:05.656Z,100.00
2023-02-15T10:18:04.380Z,100.00
2023-02-15T10:20:42.849Z,100.00
2023-02-15T10:23:34.523Z,100.00
2023-02-15T10:26:19.556Z,100.00
2023-02-15T10:28:56.373Z,100.00
2023-02-15T10:31:51.851Z,100.00
2023-02-15T10:34:38.265Z,100.00
2023-02-15T10:37:35.961Z,100.00
2023-02-15T10:40:39.143Z,100.00
2023-02-15T10:43:43.174Z,100.00
2023-02-15T10:46:34.591Z,100.00
2023-02-15T10:49:24.813Z,100.00
2023-02-15T10:52:00.137Z,100.00
2023-02-15T10:54:37.366Z,100.00
2023-02-15T10:57:08.726Z,100.00
2023-02-15T10:59:40.998Z,100.00
2023-02-15T11:02:38.635Z,100.00
2023-02-15T11:05:19.064Z,100.00
2023-02-15T11:07:49.881Z,100.00
2023-02-15T11:10:52.804Z,96.65
2023-02-15T11:13:22.152Z,95.37
2023-02-15T11:15:54.893Z,91.47
2023-02-15T11:18:35.396Z,93.49
2023-02-15T11:21:11.390Z,99.42
2023-02-15T11:23:43.159Z,98.58
2023-02-15T11:26:17.906Z,100.00
2023-02-15T11:28:52.554Z,100.00
2023-02-15T11:31:43.521Z,100.00
2023-02-15T11:34:21.654Z,100.00
2023-02-15T11:36:51.584Z,100.00
2023-02-15T11:39:20.854Z,100.00
2023-02-15T11:41:53.041Z,100.00
2023-02-15T11:44:28.688Z,100.00
2023-02-15T11:46:55.206Z,100.00
2023-02-15T11:49:34.875Z,95.38
2023-02-15T11:52:07.928Z,98.10
2023-02-15T11:54:41.381Z,98.83
2023-02-15T11:57:13.937Z,100.00
2023-02-15T11:59:43.630Z,100.00
2023-02-15T12:02:21.806Z,100.00
2023-02-15T12:05:20.234Z,96.33
2023-02-15T12:07:53.620Z,95.39
2023-02-15T12:10:30.109Z,97.34
2023-02-15T12:13:13.532Z,96.88
2023-02-15T12:15:45.006Z,92.53
2023-02-15T12:18:41.519Z,94.97
2023-02-15T12:21:11.098Z,92.70
2023-02-15T12:23:49.556Z,92.62
2023-02-15T12:26:25.271Z,95.90
2023-02-15T12:28:53.296Z,98.63
2023-02-15T12:31:28.015Z,95.95
2023-02-15T12:33:58.345Z,94.98
2023-02-15T12:36:46.612Z,93.96
2023-02-15T12:39:13.058Z,92.58
2023-02-15T12:42:05.087Z,93.99
2023-02-15T12:44:36.929Z,96.11
2023-02-15T12:47:28.985Z,94.89
2023-02-15T12:50:18.684Z,99.20
2023-02-15T12:52:48.712Z,100.00
2023-02-15T12:55:24.844Z,100.00
2023-02-15T12:58:09.810Z,100.00
2023-02-15T13:00:36.517Z,99.76
2023-02-15T13:03:03.902Z,99.04
2023-02-15T13:05:39.363Z,100.00
2023-02-15T13:08:20.656Z,100.00
2023-02-15T13:10:57.218Z,100.00
2023-02-15T13:13:27.985Z,100.00
2023-02-15T13:15:59.257Z,100.00
2023-02-15T13:18:41.726Z,100.00
2023-02-15T13:21:17.782Z,100.00
2023-02-15T13:23:49.346Z,100.00
2023-02-15T13:26:20.888Z,100.00
2023-02-15T13:29:06.181Z,100.00
2023-02-15T13:31:34.289Z,100.00
2023-02-15T13:34:21.685Z,100.00
2023-02-15T13:37:00.389Z,100.00
2023-02-15T13:39:29.932Z,100.00
2023-02-15T13:42:10.184Z,100.00
2023-02-15T13:44:58.508Z,100.00
2023-02-15T13:47:31.787Z,100.00
2023-02-15T13:50:37.301Z,100.00
2023-02-15T13:53:25.142Z,100.00
2023-02-15T13:56:03.007Z,100.00
2023-02-15T13:58:38.640Z,100.00
2023-02-15T14:01:42.551Z,100.00
2023-02-15T14:04:17.011Z,100.00
2023-02-15T14:07:09.896Z,100.00
2023-02-15T14:09:58.096Z,100.00
2023-02-15T14:12:57.034Z,100.00
2023-02-15T14:15:33.398Z,100.00
2023-02-15T14:18:13.000Z,100.00
2023-02-15T14:20:52.992Z,100.00
2023-02-15T14:23:50.323Z,100.00
2023-02-15T14:26:28.968Z,100.00
2023-02-15T14:29:01.489Z,100.00
2023-02-15T14:31:47.117Z,100.00
2023-02-15T14:34:51.918Z,100.00
2023-02-15T14:37:33.080Z,100.00
2023-02-15T14:40:26.049Z,100.00
2023-02-15T14:43:10.321Z,100.00
2023-02-15T14:45:44.712Z,100.00
2023-02-15T14:48:26.564Z,100.00
2023-02-15T14:50:52.957Z,100.00
2023-02-15T14:53:32.058Z,100.00
2023-02-15T14:56:19.162Z,100.00
2023-02-15T14:58:52.646Z,100.00
2023-02-15T15:01:29.852Z,100.00
2023-02-15T15:04:04.137Z,100.00
2023-02-15T15:06:34.137Z,100.00
2023-02-15T15:09:22.428Z,100.00
2023-02-15T15:12:35.414Z,100.00
2023-02-15T15:15:02.387Z,100.00
2023-02-15T15:17:39.210Z,100.00
2023-02-15T15:20:28.682Z,100.00
2023-02-15T15:23:21.242Z,100.00
2023-02-15T15:25:52.920Z,100.00
2023-02-15T15:28:34.680Z,100.00
2023-02-15T15:31:26.062Z,100.00
2023-02-15T15:34:42.696Z,100.00
2023-02-15T15:37:48.350Z,100.00
2023-02-15T15:40:43.082Z,100.00
2023-02-15T15:43:37.130Z,100.00
2023-02-15T15:47:03.800Z,100.00
2023-02-15T15:49:33.504Z,100.00
2023-02-15T15:52:13.498Z,100.00
2023-02-15T15:54:42.013Z,100.00
2023-02-15T15:57:20.386Z,100.00
2023-02-15T15:59:47.757Z,100.00
2023-02-15T16:02:17.040Z,100.00
2023-02-15T16:04:44.749Z,100.00
2023-02-15T16:07:25.535Z,100.00
2023-02-15T16:10:04.608Z,100.00
2023-02-15T16:12:40.296Z,100.00
2023-02-15T16:15:19.966Z,100.00
2023-02-15T16:17:50.445Z,100.00
2023-02-15T16:20:31.985Z,100.00
2023-02-15T16:23:10.546Z,100.00
2023-02-15T16:26:02.055Z,100.00
2023-02-15T16:28:29.316Z,100.00
2023-02-15T16:31:06.831Z,100.00
2023-02-15T16:33:38.634Z,100.00
2023-02-15T16:36:08.793Z,100.00
2023-02-15T16:39:06.906Z,100.00
2023-02-15T16:41:33.695Z,100.00
2023-02-15T16:44:13.166Z,100.00
2023-02-15T16:46:47.089Z,100.00
2023-02-15T16:49:26.718Z,100.00
2023-02-15T16:52:01.029Z,100.00
2023-02-15T16:54:29.481Z,100.00
2023-02-15T16:56:56.675Z,100.00
2023-02-15T16:59:28.903Z,100.00
2023-02-15T17:01:55.621Z,100.00
2023-02-15T17:04:22.068Z,100.00
2023-02-15T17:07:14.710Z,100.00
2023-02-15T17:09:51.498Z,100.00
2023-02-15T17:12:47.116Z,100.00
2023-02-15T17:15:32.030Z,100.00
2023-02-15T17:18:04.253Z,100.00
2023-02-15T17:20:34.208Z,100.00
2023-02-15T17:23:02.182Z,100.00
2023-02-15T17:25:55.467Z,100.00
2023-02-15T17:28:24.801Z,100.00
2023-02-15T17:30:54.293Z,100.00
2023-02-15T17:33:35.411Z,100.00
2023-02-15T17:36:06.157Z,100.00
2023-02-15T17:38:33.598Z,100.00
2023-02-15T17:41:00.215Z,100.00
2023-02-15T17:43:26.841Z,100.00
2023-02-15T17:45:54.230Z,100.00
2023-02-15T17:48:31.727Z,100.00
2023-02-15T17:51:01.595Z,100.00
2023-02-15T17:53:28.426Z,100.00
2023-02-15T17:55:55.065Z,100.00
2023-02-15T17:58:25.294Z,100.00
2023-02-15T18:01:14.342Z,100.00
2023-02-15T18:04:07.569Z,100.00
2023-02-15T18:06:55.473Z,100.00
2023-02-15T18:09:41.997Z,100.00
2023-02-15T18:12:25.420Z,100.00
2023-02-15T18:14:54.360Z,100.00
2023-02-15T18:17:27.364Z,100.00
2023-02-15T18:19:56.682Z,100.00
2023-02-15T18:22:23.171Z,100.00
2023-02-15T18:24:50.120Z,100.00
2023-02-15T18:27:16.958Z,100.00
2023-02-15T18:29:43.545Z,100.00
2023-02-15T18:32:18.235Z,100.00
2023-02-15T18:34:47.079Z,100.00
2023-02-15T18:37:17.104Z,100.00
2023-02-15T18:39:47.000Z,100.00
2023-02-15T18:42:19.407Z,100.00
2023-02-15T18:44:45.909Z,100.00
2023-02-15T18:47:12.392Z,100.00
2023-02-15T18:49:38.903Z,100.00
2023-02-15T18:52:05.667Z,100.00
2023-02-15T18:54:32.237Z,100.00
2023-02-15T18:57:01.066Z,100.00
2023-02-15T18:59:28.468Z,100.00
2023-02-15T19:01:55.752Z,100.00
2023-02-15T19:04:24.222Z,100.00
2023-02-15T19:06:52.316Z,100.00
2023-02-15T19:09:22.056Z,100.00
2023-02-15T19:11:54.164Z,100.00
2023-02-15T19:14:31.861Z,100.00
2023-02-15T19:17:00.526Z,100.00
2023-02-15T19:19:27.624Z,100.00
2023-02-15T19:21:54.857Z,100.00
2023-02-15T19:24:36.893Z,100.00
2023-02-15T19:27:03.987Z,100.00
2023-02-15T19:29:30.910Z,100.00
2023-02-15T19:31:58.134Z,100.00
2023-02-15T19:34:24.748Z,100.00
2023-02-15T19:36:53.360Z,100.00
2023-02-15T19:39:26.320Z,100.00
2023-02-15T19:41:53.497Z,100.00
2023-02-15T19:44:20.506Z,100.00
2023-02-15T19:46:47.317Z,100.00
2023-02-15T19:49:14.064Z,100.00
2023-02-15T19:51:40.831Z,100.00
2023-02-15T19:54:18.935Z,100.00
2023-02-15T19:56:45.375Z,100.00
2023-02-15T19:59:28.094Z,100.00
2023-02-15T20:01:55.064Z,100.00
2023-02-15T20:04:21.637Z,100.00
2023-02-15T20:06:50.339Z,100.00
2023-02-15T20:09:26.448Z,100.00
2023-02-15T20:11:53.690Z,100.00
2023-02-15T20:14:21.468Z,100.00
2023-02-15T20:16:48.029Z,100.00
2023-02-15T20:19:14.539Z,100.00
2023-02-15T20:21:43.888Z,100.00
2023-02-15T20:24:16.551Z,100.00
2023-02-15T20:26:43.858Z,100.00
2023-02-15T20:29:13.878Z,100.00
2023-02-15T20:31:40.592Z,100.00
2023-02-15T20:34:07.714Z,100.00
2023-02-15T20:36:35.694Z,100.00
2023-02-15T20:39:11.378Z,100.00
2023-02-15T20:41:40.170Z,100.00
2023-02-15T20:44:16.965Z,100.00
2023-02-15T20:46:43.797Z,100.00
2023-02-15T20:49:10.496Z,100.00
2023-02-15T20:51:37.405Z,100.00
2023-02-15T20:54:13.358Z,100.00
2023-02-15T20:56:39.916Z,100.00
2023-02-15T20:59:17.761Z,100.00
2023-02-15T21:01:44.383Z,100.00
2023-02-15T21:04:18.378Z,100.00
2023-02-15T21:06:45.088Z,100.00
2023-02-15T21:09:17.601Z,100.00
2023-02-15T21:11:44.869Z,100.00
2023-02-15T21:14:18.114Z,100.00
2023-02-15T21:16:45.239Z,100.00
2023-02-15T21:19:20.054Z,100.00
2023-02-15T21:21:48.207Z,100.00
2023-02-15T21:24:19.028Z,100.00
2023-02-15T21:26:46.702Z,100.00
2023-02-15T21:29:18.409Z,100.00
2023-02-15T21:31:45.727Z,100.00
2023-02-15T21:34:12.959Z,100.00
2023-02-15T21:36:41.517Z,100.00
2023-02-15T21:39:16.898Z,100.00
2023-02-15T21:42:05.225Z,100.00
2023-02-15T21:44:51.053Z,100.00
2023-02-15T21:47:47.853Z,100.00
2023-02-15T21:50:43.339Z,100.00
2023-02-15T21:53:13.396Z,100.00
2023-02-15T21:55:39.886Z,100.00
2023-02-15T21:58:06.403Z,100.00
2023-02-15T22:00:33.934Z,100.00
2023-02-15T22:03:01.949Z,100.00
2023-02-15T22:05:31.571Z,100.00
2023-02-15T22:07:58.316Z,100.00
2023-02-15T22:10:31.261Z,100.00
2023-02-15T22:13:00.353Z,100.00
2023-02-15T22:15:32.399Z,100.00
2023-02-15T22:17:58.882Z,100.00
2023-02-15T22:20:25.414Z,100.00
2023-02-15T22:22:52.551Z,100.00
2023-02-15T22:25:22.185Z,100.00
2023-02-15T22:27:50.143Z,100.00
2023-02-15T22:30:26.694Z,100.00
2023-02-15T22:32:55.460Z,100.00
2023-02-15T22:35:26.306Z,100.00
2023-02-15T22:37:53.053Z,100.00
2023-02-15T22:40:20.564Z,100.00
2023-02-15T22:42:49.813Z,100.00
2023-02-15T22:45:22.411Z,100.00
2023-02-15T22:47:52.743Z,100.00
2023-02-15T22:50:22.622Z,100.00
2023-02-15T22:52:49.939Z,100.00
2023-02-15T22:55:18.021Z,100.00
2023-02-15T22:57:47.763Z,100.00
2023-02-15T23:00:22.501Z,100.00
2023-02-15T23:02:48.946Z,100.00
2023-02-15T23:05:30.328Z,100.00
2023-02-15T23:07:58.072Z,100.00
2023-02-15T23:10:26.615Z,100.00
2023-02-15T23:13:16.337Z,100.00
2023-02-15T23:15:44.404Z,100.00
2023-02-15T23:18:19.966Z,100.00
2023-02-15T23:20:50.392Z,100.00
2023-02-15T23:23:19.764Z,100.00
2023-02-15T23:25:46.221Z,100.00
2023-02-15T23:28:19.229Z,100.00
2023-02-15T23:30:46.611Z,100.00
2023-02-15T23:33:13.313Z,100.00
2023-02-15T23:35:39.920Z,100.00
2023-02-15T23:38:18.055Z,100.00
2023-02-15T23:41:08.113Z,100.00
2023-02-15T23:43:34.946Z,100.00
2023-02-15T23:46:01.793Z,100.00
2023-02-15T23:48:38.834Z,100.00
2023-02-15T23:51:06.731Z,100.00
2023-02-15T23:53:33.337Z,100.00
2023-02-15T23:56:00.297Z,100.00
2023-02-15T23:58:35.291Z,100.00
